Time;durP1;ratioP1;P1;durP2;ratioP2;P2;SDS_P1;SDS_P2;PMS_P1;PMS_P2;Temp;Humidity;BMP_temperature;BMP_pressure;BME280_temperature;BME280_humidity;BME280_pressure;Samples;Min_cycle;Max_cycle;Signal;HPM_P1;HPM_P2
2023/06/20 00:00:41;;;;;;;;;;;;;;;21.14;80.58;96146.06;5107130;28;20025;-77
2023/06/20 00:03:07;;;;;;;;;;;;;;;21.16;80.38;96162.56;5106517;28;19954;-77
2023/06/20 00:05:32;;;;;;;;;;;;;;;21.14;81.08;96184.16;5105409;28;19984;-70
2023/06/20 00:07:58;;;;;;;;;;;;;;;21.13;82.08;96208.47;5106486;28;19957;-78
2023/06/20 00:10:24;;;;;;;;;;;;;;;21.04;83.02;96235.81;5106472;28;20023;-78
2023/06/20 00:12:50;;;;;;;;;;;;;;;20.95;85.86;96258.06;5106530;28;20232;-79
2023/06/20 00:15:16;;;;;;;;;;;;;;;20.77;88.17;96281.78;5106474;28;19957;-80
2023/06/20 00:17:42;;;;;;;;;;;;;;;20.67;87.80;96300.56;5106620;28;19954;-78
2023/06/20 00:20:11;;;;;;;;;;;;;;;20.56;92.01;96331.03;5106370;28;20005;-77
2023/06/20 00:22:37;;;;;;;;;;;;;;;20.47;92.21;96338.84;5106573;28;19972;-70
2023/06/20 00:25:06;;;;;;;;;;;;;;;20.43;94.86;96353.81;5104952;28;19962;-75
2023/06/20 00:27:32;;;;;;;;;;;;;;;20.37;92.93;96353.09;5106678;28;20077;-73
2023/06/20 00:29:58;;;;;;;;;;;;;;;20.32;98.89;96368.31;5106369;28;20020;-74
2023/06/20 00:32:23;;;;;;;;;;;;;;;20.19;100.00;96375.09;5105969;28;19957;-73
2023/06/20 00:34:49;;;;;;;;;;;;;;;20.06;100.00;96381.88;5105935;28;19957;-73
2023/06/20 00:37:15;;;;;;;;;;;;;;;19.94;100.00;96376.13;5106403;28;20156;-72
2023/06/20 00:39:41;;;;;;;;;;;;;;;19.84;100.00;96375.16;5105827;28;19972;-74
2023/06/20 00:42:20;;;;;;;;;;;;;;;19.76;100.00;96378.41;5106271;28;20017;-69
2023/06/20 00:44:46;;;;;;;;;;;;;;;19.69;100.00;96383.19;5104631;28;19970;-75
2023/06/20 00:47:15;;;;;;;;;;;;;;;19.64;100.00;96383.25;5104103;28;20237;-74
2023/06/20 00:49:40;;;;;;;;;;;;;;;19.56;100.00;96381.97;5104620;28;19963;-73
2023/06/20 00:52:06;;;;;;;;;;;;;;;19.48;100.00;96378.00;5105915;28;20020;-74
2023/06/20 00:54:33;;;;;;;;;;;;;;;19.45;100.00;96361.84;5104890;28;19948;-73
2023/06/20 00:56:59;;;;;;;;;;;;;;;19.42;100.00;96368.50;5104748;28;19969;-73
2023/06/20 00:59:25;;;;;;;;;;;;;;;19.39;100.00;96366.38;5104619;28;19965;-69
2023/06/20 01:01:53;;;;;;;;;;;;;;;19.35;100.00;96368.00;5105943;28;19958;-88
2023/06/20 01:04:20;;;;;;;;;;;;;;;19.35;100.00;96367.22;5105916;28;19954;-73
2023/06/20 01:06:59;;;;;;;;;;;;;;;19.28;100.00;96367.53;5105791;28;19957;-73
2023/06/20 01:09:36;;;;;;;;;;;;;;;19.25;100.00;96371.50;5105719;28;19955;-73
2023/06/20 01:12:15;;;;;;;;;;;;;;;19.23;100.00;96357.72;5105670;28;19959;-72
2023/06/20 01:14:46;;;;;;;;;;;;;;;19.25;100.00;96352.13;5105500;28;19958;-72
2023/06/20 01:17:22;;;;;;;;;;;;;;;19.25;100.00;96347.59;5105710;28;19971;-73
2023/06/20 01:20:09;;;;;;;;;;;;;;;19.22;100.00;96331.41;5103896;28;19962;-69
2023/06/20 01:22:41;;;;;;;;;;;;;;;19.25;100.00;96320.22;5105141;28;19954;-73
2023/06/20 01:25:14;;;;;;;;;;;;;;;19.30;100.00;96304.25;5105385;28;19951;-72
2023/06/20 01:27:53;;;;;;;;;;;;;;;19.27;100.00;96316.19;5103975;28;20255;-73
2023/06/20 01:30:31;;;;;;;;;;;;;;;19.24;100.00;96323.94;5105293;28;19983;-72
2023/06/20 01:33:02;;;;;;;;;;;;;;;19.22;100.00;96305.59;5104759;28;20254;-73
2023/06/20 01:35:30;;;;;;;;;;;;;;;19.24;100.00;96308.78;5105081;28;19962;-73
2023/06/20 01:37:58;;;;;;;;;;;;;;;19.31;100.00;96310.34;5105160;28;19982;-75
2023/06/20 01:40:25;;;;;;;;;;;;;;;19.34;100.00;96301.78;5103486;28;19967;-71
2023/06/20 01:42:54;;;;;;;;;;;;;;;19.35;100.00;96290.91;5103500;28;19962;-71
2023/06/20 01:45:20;;;;;;;;;;;;;;;19.36;100.00;96287.19;5086503;28;19959;-72
2023/06/20 01:47:48;;;;;;;;;;;;;;;19.30;100.00;96282.97;5103734;28;19981;-71
2023/06/20 01:50:16;;;;;;;;;;;;;;;19.27;100.00;96278.19;5103709;28;20125;-71
2023/06/20 01:52:43;;;;;;;;;;;;;;;19.28;100.00;96282.44;5105012;28;19953;-71
2023/06/20 01:55:10;;;;;;;;;;;;;;;19.30;100.00;96284.81;5103434;28;19954;-72
2023/06/20 01:57:37;;;;;;;;;;;;;;;19.29;100.00;96277.91;5103591;28;20090;-83
2023/06/20 02:00:08;;;;;;;;;;;;;;;19.25;100.00;96270.47;5104727;28;20125;-82
2023/06/20 02:02:35;;;;;;;;;;;;;;;19.21;100.00;96258.84;5103724;28;19968;-83
2023/06/20 02:05:02;;;;;;;;;;;;;;;19.21;100.00;96255.38;5104583;28;19952;-82
2023/06/20 02:07:30;;;;;;;;;;;;;;;19.23;100.00;96247.91;5103595;28;19952;-83
2023/06/20 02:09:56;;;;;;;;;;;;;;;19.23;100.00;96240.75;5086370;28;19958;-83
2023/06/20 02:12:23;;;;;;;;;;;;;;;19.27;100.00;96241.75;5086642;28;19961;-83
2023/06/20 02:14:51;;;;;;;;;;;;;;;19.25;100.00;96229.81;5086505;28;19957;-73
2023/06/20 02:17:17;;;;;;;;;;;;;;;19.22;100.00;96228.50;5104715;28;19953;-78
2023/06/20 02:19:43;;;;;;;;;;;;;;;19.23;100.00;96243.41;5103197;28;19968;-78
2023/06/20 02:22:11;;;;;;;;;;;;;;;19.23;100.00;96230.13;5082013;28;20267;-77
2023/06/20 02:24:37;;;;;;;;;;;;;;;19.24;100.00;96234.34;5082596;28;19942;-78
2023/06/20 02:27:05;;;;;;;;;;;;;;;19.25;100.00;96233.25;5082756;28;20169;-77
2023/06/20 02:29:33;;;;;;;;;;;;;;;19.26;100.00;96232.22;5082019;28;19963;-78
2023/06/20 02:32:00;;;;;;;;;;;;;;;19.27;100.00;96233.00;5082246;28;19957;-68
2023/06/20 02:34:27;;;;;;;;;;;;;;;19.29;100.00;96236.16;5065344;28;19959;-75
2023/06/20 02:36:55;;;;;;;;;;;;;;;19.29;100.00;96233.50;5065318;28;19959;-75
2023/06/20 02:39:22;;;;;;;;;;;;;;;19.30;100.00;96236.94;5082077;28;19959;-75
2023/06/20 02:41:48;;;;;;;;;;;;;;;19.29;100.00;96240.69;5081969;28;19962;-75
2023/06/20 02:44:14;;;;;;;;;;;;;;;19.26;100.00;96236.75;5081922;28;19956;-75
2023/06/20 02:46:58;;;;;;;;;;;;;;;19.26;100.00;96236.75;5081885;28;19990;-76
2023/06/20 02:49:27;;;;;;;;;;;;;;;19.24;100.00;96241.53;5082587;28;19938;-75
2023/06/20 02:51:52;;;;;;;;;;;;;;;19.21;100.00;96240.22;5065194;28;19958;-71
2023/06/20 02:54:26;;;;;;;;;;;;;;;19.18;100.00;96248.75;5103303;28;20200;-72
2023/06/20 02:56:54;;;;;;;;;;;;;;;19.18;100.00;96250.63;5104404;28;20010;-72
2023/06/20 02:59:26;;;;;;;;;;;;;;;19.16;100.00;96252.75;5103990;28;19953;-73
2023/06/20 03:01:56;;;;;;;;;;;;;;;19.13;100.00;96246.16;5104149;28;19960;-73
2023/06/20 03:04:22;;;;;;;;;;;;;;;19.10;100.00;96243.22;5104091;28;20138;-73
2023/06/20 03:06:51;;;;;;;;;;;;;;;19.09;100.00;96241.63;5104262;28;20223;-72
2023/06/20 03:09:17;;;;;;;;;;;;;;;19.06;100.00;96246.44;5104189;28;20256;-86
2023/06/20 03:11:43;;;;;;;;;;;;;;;19.04;100.00;96243.25;5106233;28;20226;-85
2023/06/20 03:14:12;;;;;;;;;;;;;;;19.02;100.00;96242.78;5107867;28;19949;-86
2023/06/20 03:16:41;;;;;;;;;;;;;;;19.02;100.00;96245.44;5089983;28;19962;-87
2023/06/20 03:19:10;;;;;;;;;;;;;;;18.99;100.00;96240.66;5106795;28;19957;-85
2023/06/20 03:21:39;;;;;;;;;;;;;;;18.99;100.00;96247.84;5106631;28;19961;-86
2023/06/20 03:24:05;;;;;;;;;;;;;;;18.96;100.00;96245.72;5106281;28;20212;-85
2023/06/20 03:26:33;;;;;;;;;;;;;;;18.93;100.00;96249.72;5107713;28;19953;-74
2023/06/20 03:28:59;;;;;;;;;;;;;;;18.91;100.00;96249.19;5106335;28;19958;-86
2023/06/20 03:31:25;;;;;;;;;;;;;;;18.89;100.00;96248.69;5106286;28;20014;-71
2023/06/20 03:33:50;;;;;;;;;;;;;;;18.86;100.00;96246.59;5107465;28;20017;-71
2023/06/20 03:36:16;;;;;;;;;;;;;;;18.85;100.00;96240.47;5107524;28;19959;-71
2023/06/20 03:38:42;;;;;;;;;;;;;;;18.81;100.00;96236.75;5107342;28;19953;-72
2023/06/20 03:41:08;;;;;;;;;;;;;;;18.79;100.00;96225.66;5107037;28;19963;-71
2023/06/20 03:43:34;;;;;;;;;;;;;;;18.78;100.00;96220.56;5106752;28;19964;-71
2023/06/20 03:45:59;;;;;;;;;;;;;;;18.77;100.00;96218.97;5106320;28;19967;-70
2023/06/20 03:48:25;;;;;;;;;;;;;;;18.76;100.00;96225.38;5105696;28;19964;-73
2023/06/20 03:50:51;;;;;;;;;;;;;;;18.74;100.00;96230.16;5107314;28;19960;-72
2023/06/20 03:53:17;;;;;;;;;;;;;;;18.72;100.00;96226.97;5107064;28;20029;-72
2023/06/20 03:55:43;;;;;;;;;;;;;;;18.68;100.00;96229.38;5107097;28;20178;-72
2023/06/20 03:58:09;;;;;;;;;;;;;;;18.62;100.00;96225.16;5106786;28;19958;-72
2023/06/20 04:00:34;;;;;;;;;;;;;;;18.58;100.00;96226.78;5106948;28;19967;-72
2023/06/20 04:03:01;;;;;;;;;;;;;;;18.58;100.00;96242.72;5106902;28;19957;-69
2023/06/20 04:05:27;;;;;;;;;;;;;;;18.54;100.00;96231.88;5105314;28;19960;-79
2023/06/20 04:07:53;;;;;;;;;;;;;;;18.53;100.00;96232.91;5105393;28;19967;-74
2023/06/20 04:10:19;;;;;;;;;;;;;;;18.55;100.00;96241.41;5105850;28;19944;-72
2023/06/20 04:12:45;;;;;;;;;;;;;;;18.57;100.00;96241.94;5106867;28;19969;-72
2023/06/20 04:15:11;;;;;;;;;;;;;;;18.62;100.00;96243.75;5088654;28;19956;-72
2023/06/20 04:17:39;;;;;;;;;;;;;;;18.65;100.00;96240.56;5106860;28;20029;-73
2023/06/20 04:20:12;;;;;;;;;;;;;;;18.68;100.00;96245.31;5106304;28;19961;-72
2023/06/20 04:22:42;;;;;;;;;;;;;;;18.72;100.00;96241.06;5105519;28;19955;-71
2023/06/20 04:25:08;;;;;;;;;;;;;;;18.75;100.00;96243.19;5105064;28;19958;-79
2023/06/20 04:27:34;;;;;;;;;;;;;;;18.81;100.00;96246.59;5105262;28;19976;-78
2023/06/20 04:30:01;;;;;;;;;;;;;;;18.85;100.00;96248.44;5106439;28;19955;-79
2023/06/20 04:32:27;;;;;;;;;;;;;;;18.91;100.00;96245.75;5104992;28;19967;-79
2023/06/20 04:34:53;;;;;;;;;;;;;;;18.96;100.00;96245.72;5105701;28;20295;-79
2023/06/20 04:37:19;;;;;;;;;;;;;;;19.00;100.00;96249.41;5106480;28;20234;-79
2023/06/20 04:39:44;;;;;;;;;;;;;;;19.01;100.00;96237.72;5106124;28;19960;-80
2023/06/20 04:42:10;;;;;;;;;;;;;;;19.07;100.00;96249.91;5106311;28;20220;-73
2023/06/20 04:44:36;;;;;;;;;;;;;;;19.13;100.00;96248.81;5104611;28;19957;-75
2023/06/20 04:47:02;;;;;;;;;;;;;;;19.21;100.00;96250.06;5106190;28;19951;-75
2023/06/20 04:49:28;;;;;;;;;;;;;;;19.26;100.00;96248.16;5104796;28;20143;-75
2023/06/20 04:51:57;;;;;;;;;;;;;;;19.30;100.00;96247.59;5105726;28;19974;-76
2023/06/20 04:54:26;;;;;;;;;;;;;;;19.34;100.00;96249.44;5105822;28;20229;-75
2023/06/20 04:56:53;;;;;;;;;;;;;;;19.40;100.00;96253.63;5105911;28;20142;-75
2023/06/20 04:59:19;;;;;;;;;;;;;;;19.45;100.00;96250.13;5105741;28;19965;-72
2023/06/20 05:01:51;;;;;;;;;;;;;;;19.50;100.00;96266.03;5105704;28;20177;-85
2023/06/20 05:04:17;;;;;;;;;;;;;;;19.53;100.00;96270.00;5104014;28;19968;-84
2023/06/20 05:06:44;;;;;;;;;;;;;;;19.58;100.00;96268.09;5105970;28;19983;-85
2023/06/20 05:09:10;;;;;;;;;;;;;;;19.66;100.00;96266.72;5104115;28;19956;-84
2023/06/20 05:11:35;;;;;;;;;;;;;;;19.71;100.00;96265.91;5105670;28;19962;-84
2023/06/20 05:14:01;;;;;;;;;;;;;;;19.80;100.00;96261.53;5105190;28;19984;-83
2023/06/20 05:16:27;;;;;;;;;;;;;;;19.90;100.00;96258.00;5105405;28;20022;-84
2023/06/20 05:18:53;;;;;;;;;;;;;;;19.94;100.00;96259.00;5105513;28;20269;-72
2023/06/20 05:21:19;;;;;;;;;;;;;;;20.00;100.00;96255.22;5087288;28;20004;-69
2023/06/20 05:23:45;;;;;;;;;;;;;;;20.10;100.00;96262.31;5104861;28;20390;-70
2023/06/20 05:26:11;;;;;;;;;;;;;;;20.24;100.00;96258.69;5105278;28;19952;-69
2023/06/20 05:28:37;;;;;;;;;;;;;;;20.40;100.00;96261.16;5105432;28;19964;-70
2023/06/20 05:31:03;;;;;;;;;;;;;;;20.52;100.00;96271.41;5103799;28;19964;-70
2023/06/20 05:33:29;;;;;;;;;;;;;;;20.65;100.00;96268.06;5104889;28;19962;-71
2023/06/20 05:35:55;;;;;;;;;;;;;;;20.88;100.00;96274.44;5105208;28;19950;-85
2023/06/20 05:38:21;;;;;;;;;;;;;;;21.07;100.00;96264.53;5104981;28;19963;-80
2023/06/20 05:40:46;;;;;;;;;;;;;;;21.18;100.00;96265.19;5087048;28;19967;-80
2023/06/20 05:43:12;;;;;;;;;;;;;;;21.23;98.79;96258.97;5104726;28;20002;-79
2023/06/20 05:45:38;;;;;;;;;;;;;;;21.22;99.60;96258.19;5104788;28;19959;-80
2023/06/20 05:48:04;;;;;;;;;;;;;;;21.23;98.39;96254.44;5104761;28;19958;-79
2023/06/20 05:50:33;;;;;;;;;;;;;;;21.23;97.68;96265.13;5104943;28;19956;-79
2023/06/20 05:53:00;;;;;;;;;;;;;;;21.29;99.29;96263.94;5104629;28;19961;-80
2023/06/20 05:55:25;;;;;;;;;;;;;;;21.41;98.41;96265.38;5104808;28;19954;-84
2023/06/20 05:57:51;;;;;;;;;;;;;;;21.44;97.72;96264.78;5104879;28;20033;-76
2023/06/20 06:00:17;;;;;;;;;;;;;;;21.58;98.83;96260.28;5104801;28;19987;-75
2023/06/20 06:02:46;;;;;;;;;;;;;;;21.79;96.43;96259.94;5105052;28;19959;-76
2023/06/20 06:05:12;;;;;;;;;;;;;;;21.96;94.91;96254.81;5104698;28;19952;-76
2023/06/20 06:07:38;;;;;;;;;;;;;;;22.09;93.89;96255.94;5105004;28;19964;-75
2023/06/20 06:10:08;;;;;;;;;;;;;;;22.15;94.56;96253.94;5104952;28;19956;-76
2023/06/20 06:12:37;;;;;;;;;;;;;;;22.23;94.17;96250.63;5103073;28;19959;-71
2023/06/20 06:15:03;;;;;;;;;;;;;;;22.34;94.09;96259.22;5104407;28;19969;-72
2023/06/20 06:17:31;;;;;;;;;;;;;;;22.54;93.76;96258.03;5104694;28;19952;-72
2023/06/20 06:19:57;;;;;;;;;;;;;;;22.66;93.80;96261.75;5104385;28;19965;-72
2023/06/20 06:22:23;;;;;;;;;;;;;;;22.79;91.70;96254.00;5104474;28;20170;-72
2023/06/20 06:24:49;;;;;;;;;;;;;;;22.85;91.93;96258.16;5103277;28;19961;-73
2023/06/20 06:27:17;;;;;;;;;;;;;;;22.81;90.53;96249.94;5104585;28;19957;-72
2023/06/20 06:29:43;;;;;;;;;;;;;;;22.76;90.67;96259.94;5104504;28;19959;-73
2023/06/20 06:32:10;;;;;;;;;;;;;;;22.70;89.27;96252.06;5103907;28;19960;-75
2023/06/20 06:34:36;;;;;;;;;;;;;;;22.76;91.08;96270.66;5103438;28;19962;-75
2023/06/20 06:37:03;;;;;;;;;;;;;;;22.70;90.14;96257.41;5104076;28;19966;-75
2023/06/20 06:39:29;;;;;;;;;;;;;;;22.71;88.73;96255.50;5104127;28;19964;-75
2023/06/20 06:41:55;;;;;;;;;;;;;;;22.70;89.37;96265.41;5104047;28;20147;-76
2023/06/20 06:44:21;;;;;;;;;;;;;;;22.81;90.43;96263.31;5104126;28;19957;-76
2023/06/20 06:46:47;;;;;;;;;;;;;;;22.85;88.58;96250.94;5106519;28;20014;-76
2023/06/20 06:49:13;;;;;;;;;;;;;;;22.81;88.74;96249.94;5108428;28;19961;-77
2023/06/20 06:51:39;;;;;;;;;;;;;;;22.86;89.01;96257.84;5106867;28;19956;-72
2023/06/20 06:54:05;;;;;;;;;;;;;;;22.95;90.03;96273.97;5106757;28;19958;-78
2023/06/20 06:56:31;;;;;;;;;;;;;;;23.01;86.70;96245.25;5106897;28;19959;-78
2023/06/20 06:59:00;;;;;;;;;;;;;;;23.09;90.24;96268.59;5108136;28;19962;-78
2023/06/20 07:01:29;;;;;;;;;;;;;;;23.10;86.05;96248.81;5107105;28;19960;-78
2023/06/20 07:03:55;;;;;;;;;;;;;;;23.20;87.37;96261.91;5108289;28;19993;-77
2023/06/20 07:06:21;;;;;;;;;;;;;;;23.25;85.79;96251.09;5107711;28;19958;-77
2023/06/20 07:08:47;;;;;;;;;;;;;;;23.34;85.69;96250.38;5107683;28;19965;-72
2023/06/20 07:11:13;;;;;;;;;;;;;;;23.39;83.16;96229.66;5107877;28;20034;-76
2023/06/20 07:13:39;;;;;;;;;;;;;;;23.41;85.09;96248.84;5106311;28;20246;-77
2023/06/20 07:16:04;;;;;;;;;;;;;;;23.58;87.93;96253.53;5106497;28;19960;-77
2023/06/20 07:18:30;;;;;;;;;;;;;;;23.71;84.29;96235.81;5107866;28;19990;-77
2023/06/20 07:20:57;;;;;;;;;;;;;;;23.66;84.77;96242.06;5107807;28;20061;-77
2023/06/20 07:23:23;;;;;;;;;;;;;;;23.63;84.28;96240.00;5107167;28;20148;-77
2023/06/20 07:25:49;;;;;;;;;;;;;;;23.69;87.01;96249.50;5107768;28;19958;-78
2023/06/20 07:28:15;;;;;;;;;;;;;;;23.70;87.11;96251.06;5106205;28;20300;-78
2023/06/20 07:30:40;;;;;;;;;;;;;;;23.68;86.52;96263.97;5089771;28;20232;-78
2023/06/20 07:33:06;;;;;;;;;;;;;;;23.58;85.36;96248.19;5107125;28;19960;-79
2023/06/20 07:35:32;;;;;;;;;;;;;;;23.58;85.44;96255.41;5107764;28;19959;-78
2023/06/20 07:37:58;;;;;;;;;;;;;;;23.50;84.04;96249.69;5107011;28;19971;-79
2023/06/20 07:40:24;;;;;;;;;;;;;;;23.54;86.36;96262.47;5107014;28;19994;-79
2023/06/20 07:42:50;;;;;;;;;;;;;;;23.49;86.22;96266.06;5107092;28;19986;-78
2023/06/20 07:45:16;;;;;;;;;;;;;;;23.54;87.47;96273.97;5107063;28;19963;-73
2023/06/20 07:47:42;;;;;;;;;;;;;;;23.56;86.75;96266.44;5107116;28;19958;-78
2023/06/20 07:50:08;;;;;;;;;;;;;;;23.58;87.05;96258.88;5107041;28;19958;-79
2023/06/20 07:52:34;;;;;;;;;;;;;;;23.78;87.29;96249.56;5107305;28;19961;-79
2023/06/20 07:55:04;;;;;;;;;;;;;;;24.01;84.32;96236.91;5107133;28;19961;-78
2023/06/20 07:57:30;;;;;;;;;;;;;;;24.17;85.95;96248.00;5106924;28;19963;-79
2023/06/20 07:59:56;;;;;;;;;;;;;;;24.18;84.88;96246.09;5107243;28;19944;-79
2023/06/20 08:02:22;;;;;;;;;;;;;;;24.07;84.57;96241.03;5107085;28;20008;-73
2023/06/20 08:04:48;;;;;;;;;;;;;;;24.01;82.98;96233.44;5106706;28;19963;-78
2023/06/20 08:07:14;;;;;;;;;;;;;;;24.12;83.17;96229.38;5106511;28;20161;-73
2023/06/20 08:09:40;;;;;;;;;;;;;;;24.29;82.86;96228.63;5106538;28;19955;-73
2023/06/20 08:12:06;;;;;;;;;;;;;;;24.48;80.87;96214.97;5106146;28;20245;-73
2023/06/20 08:14:32;;;;;;;;;;;;;;;24.64;80.32;96218.03;5106500;28;19960;-73
2023/06/20 08:16:58;;;;;;;;;;;;;;;24.77;80.17;96217.06;5106811;28;20142;-73
2023/06/20 08:19:24;;;;;;;;;;;;;;;24.90;78.32;96199.25;5106448;28;19953;-73
2023/06/20 08:21:50;;;;;;;;;;;;;;;24.96;79.23;96211.41;5106450;28;20012;-70
2023/06/20 08:24:16;;;;;;;;;;;;;;;25.01;77.25;96195.16;5088336;28;20243;-77
2023/06/20 08:26:41;;;;;;;;;;;;;;;25.15;75.97;96186.13;5106455;28;20237;-77
2023/06/20 08:29:08;;;;;;;;;;;;;;;25.20;75.86;96183.25;5087858;28;19951;-78
2023/06/20 08:31:37;;;;;;;;;;;;;;;25.31;76.89;96188.03;5106053;28;20261;-77
2023/06/20 08:34:04;;;;;;;;;;;;;;;25.29;73.98;96173.34;5105183;28;19952;-78
2023/06/20 08:36:30;;;;;;;;;;;;;;;25.36;75.51;96186.28;5105956;28;19966;-77
2023/06/20 08:38:56;;;;;;;;;;;;;;;25.50;75.45;96182.28;5104737;28;19984;-78
2023/06/20 08:41:25;;;;;;;;;;;;;;;25.58;74.12;96161.13;5106115;28;19970;-75
2023/06/20 08:43:52;;;;;;;;;;;;;;;25.68;73.98;96166.91;5105008;28;19967;-80
2023/06/20 08:46:18;;;;;;;;;;;;;;;25.87;72.48;96157.66;5104825;28;20132;-80
2023/06/20 08:48:44;;;;;;;;;;;;;;;25.96;72.88;96161.13;5106152;28;20022;-80
2023/06/20 08:51:14;;;;;;;;;;;;;;;26.06;72.47;96154.56;5104531;28;19976;-80
2023/06/20 08:53:40;;;;;;;;;;;;;;;26.21;72.00;96145.19;5105474;28;19956;-80
2023/06/20 08:56:06;;;;;;;;;;;;;;;26.35;70.24;96142.22;5105882;28;19954;-81
2023/06/20 08:58:32;;;;;;;;;;;;;;;26.49;68.97;96124.72;5105975;28;19967;-80
2023/06/20 09:00:58;;;;;;;;;;;;;;;26.62;70.96;96138.25;5105560;28;19964;-74
2023/06/20 09:03:24;;;;;;;;;;;;;;;26.73;67.95;96116.03;5087272;28;19962;-74
2023/06/20 09:05:50;;;;;;;;;;;;;;;26.91;68.65;96103.19;5105894;28;20260;-74
2023/06/20 09:08:16;;;;;;;;;;;;;;;27.02;65.70;96097.38;5103616;28;19961;-74
2023/06/20 09:10:42;;;;;;;;;;;;;;;27.09;66.01;96100.34;5105377;28;20242;-74
2023/06/20 09:13:10;;;;;;;;;;;;;;;27.09;66.81;96092.25;5105008;28;19959;-73
2023/06/20 09:15:38;;;;;;;;;;;;;;;27.10;64.87;96086.53;5105424;28;19952;-74
2023/06/20 09:18:06;;;;;;;;;;;;;;;27.21;64.27;96084.19;5105652;28;20058;-74
2023/06/20 09:20:32;;;;;;;;;;;;;;;27.35;64.55;96091.97;5105459;28;19958;-76
2023/06/20 09:22:58;;;;;;;;;;;;;;;27.44;63.89;96084.56;5087095;28;20148;-76
2023/06/20 09:25:25;;;;;;;;;;;;;;;27.49;61.25;96072.81;5105375;28;19954;-76
2023/06/20 09:27:52;;;;;;;;;;;;;;;27.50;62.25;96087.84;5104354;28;19959;-76
2023/06/20 09:30:18;;;;;;;;;;;;;;;27.48;63.23;96096.25;5105303;28;19951;-76
2023/06/20 09:32:44;;;;;;;;;;;;;;;27.61;63.19;96105.13;5105008;28;19958;-76
2023/06/20 09:35:13;;;;;;;;;;;;;;;27.69;60.98;96109.63;5104886;28;19955;-80
2023/06/20 09:37:47;;;;;;;;;;;;;;;27.73;56.76;96109.72;5104021;28;19964;-73
2023/06/20 09:40:14;;;;;;;;;;;;;;;27.87;60.25;96134.47;5103657;28;20243;-73
2023/06/20 09:42:44;;;;;;;;;;;;;;;28.00;58.07;96137.16;5103453;28;19979;-73
2023/06/20 09:45:11;;;;;;;;;;;;;;;28.08;54.63;96118.16;5103801;28;19957;-73
2023/06/20 09:47:38;;;;;;;;;;;;;;;28.12;54.67;96110.19;5103527;28;19958;-73
2023/06/20 09:50:07;;;;;;;;;;;;;;;28.15;57.44;96131.06;5102863;28;20794;-72
2023/06/20 09:52:43;;;;;;;;;;;;;;;28.22;55.99;96117.00;5105021;28;19976;-73
2023/06/20 09:55:10;;;;;;;;;;;;;;;28.26;57.79;96140.25;5103206;28;19966;-71
2023/06/20 09:57:57;;;;;;;;;;;;;;;28.28;55.01;96121.81;5103324;28;19963;-79
2023/06/20 10:00:26;;;;;;;;;;;;;;;28.33;53.75;96105.41;5105032;28;19961;-78
2023/06/20 10:02:53;;;;;;;;;;;;;;;28.41;52.45;96109.13;5104834;28;19964;-79
2023/06/20 10:05:20;;;;;;;;;;;;;;;28.49;52.82;96118.97;5104733;28;19961;-79
2023/06/20 10:07:46;;;;;;;;;;;;;;;28.60;52.67;96116.63;5104780;28;20120;-80
2023/06/20 10:10:13;;;;;;;;;;;;;;;28.74;52.11;96116.22;5104785;28;19956;-80
2023/06/20 10:12:40;;;;;;;;;;;;;;;28.90;48.89;96100.84;5104246;28;19941;-73
2023/06/20 10:15:07;;;;;;;;;;;;;;;28.93;46.52;96123.66;5103672;28;20112;-72
2023/06/20 10:17:35;;;;;;;;;;;;;;;29.07;49.65;96140.25;5103074;28;19960;-71
2023/06/20 10:20:04;;;;;;;;;;;;;;;29.26;49.90;96144.22;5086753;28;19969;-71
2023/06/20 10:22:35;;;;;;;;;;;;;;;29.21;48.60;96147.97;5106784;28;19961;-71
2023/06/20 10:25:11;;;;;;;;;;;;;;;29.27;47.52;96141.19;5108831;28;19958;-71
2023/06/20 10:27:44;;;;;;;;;;;;;;;29.40;49.28;96149.19;5107494;28;19959;-71
2023/06/20 10:30:12;;;;;;;;;;;;;;;29.45;47.19;96140.84;5107427;28;19964;-77
2023/06/20 10:33:04;;;;;;;;;;;;;;;29.42;42.74;96134.22;5108679;28;19964;-71
2023/06/20 10:35:31;;;;;;;;;;;;;;;29.51;45.88;96140.25;5108692;28;19951;-74
2023/06/20 10:38:07;;;;;;;;;;;;;;;29.68;47.31;96149.91;5108255;28;19952;-74
2023/06/20 10:40:34;;;;;;;;;;;;;;;29.66;45.16;96141.38;5108743;28;20238;-74
2023/06/20 10:43:04;;;;;;;;;;;;;;;29.46;44.56;96142.41;5108132;28;20153;-76
2023/06/20 10:45:30;;;;;;;;;;;;;;;29.45;46.77;96143.56;5108295;28;19954;-75
2023/06/20 10:48:01;;;;;;;;;;;;;;;29.55;45.20;96140.34;5108471;28;20006;-71
2023/06/20 10:50:27;;;;;;;;;;;;;;;29.64;47.69;96146.34;5107106;28;19963;-78
2023/06/20 10:52:53;;;;;;;;;;;;;;;29.74;47.11;96137.75;5108402;28;20026;-73
2023/06/20 10:55:23;;;;;;;;;;;;;;;29.87;46.56;96137.66;5106888;28;19967;-74
2023/06/20 10:57:50;;;;;;;;;;;;;;;30.07;47.35;96135.78;5107393;28;19968;-73
2023/06/20 11:00:19;;;;;;;;;;;;;;;30.26;46.47;96135.84;5090238;28;19954;-73
2023/06/20 11:02:49;;;;;;;;;;;;;;;30.21;45.53;96130.69;5108134;28;20179;-73
2023/06/20 11:05:15;;;;;;;;;;;;;;;30.25;44.38;96118.03;5090026;28;19956;-73
2023/06/20 11:07:54;;;;;;;;;;;;;;;30.30;46.55;96127.81;5106592;28;19967;-71
2023/06/20 11:10:36;;;;;;;;;;;;;;;30.31;46.61;96119.34;5106533;28;19962;-72
2023/06/20 11:13:03;;;;;;;;;;;;;;;30.34;45.48;96104.31;5108041;28;19962;-73
2023/06/20 11:15:30;;;;;;;;;;;;;;;30.43;46.09;96110.31;5107940;28;19958;-74
2023/06/20 11:17:57;;;;;;;;;;;;;;;30.62;45.63;96111.47;5106266;28;20141;-73
2023/06/20 11:20:24;;;;;;;;;;;;;;;30.74;45.36;96106.69;5108061;28;20141;-72
2023/06/20 11:22:54;;;;;;;;;;;;;;;30.98;46.83;96109.47;5107318;28;19960;-73
2023/06/20 11:25:21;;;;;;;;;;;;;;;31.14;46.04;96107.44;5107718;28;19956;-77
2023/06/20 11:27:47;;;;;;;;;;;;;;;31.16;43.87;96097.03;5106120;28;20261;-71
2023/06/20 11:30:13;;;;;;;;;;;;;;;31.12;43.10;96102.38;5089182;28;19965;-72
2023/06/20 11:32:39;;;;;;;;;;;;;;;31.10;43.06;96093.03;5106689;28;19958;-71
2023/06/20 11:35:06;;;;;;;;;;;;;;;31.12;43.88;96099.69;5106116;28;19955;-72
2023/06/20 11:37:32;;;;;;;;;;;;;;;31.15;43.81;96093.53;5107372;28;20131;-71
2023/06/20 11:39:58;;;;;;;;;;;;;;;31.19;42.99;96092.81;5089318;28;19958;-72
2023/06/20 11:42:24;;;;;;;;;;;;;;;31.19;42.49;96095.53;5107308;28;20222;-72
2023/06/20 11:44:50;;;;;;;;;;;;;;;31.14;39.94;96096.59;5106793;28;19965;-76
2023/06/20 11:47:16;;;;;;;;;;;;;;;31.26;43.00;96101.06;5105931;28;19950;-79
2023/06/20 11:49:41;;;;;;;;;;;;;;;31.44;43.28;96096.75;5107486;28;20026;-81
2023/06/20 11:52:08;;;;;;;;;;;;;;;31.68;41.18;96079.31;5107343;28;19963;-82
2023/06/20 11:54:50;;;;;;;;;;;;;;;31.88;43.56;96074.59;5106770;28;20266;-81
2023/06/20 11:57:23;;;;;;;;;;;;;;;32.06;42.23;96088.41;5107060;28;19958;-81
2023/06/20 11:59:48;;;;;;;;;;;;;;;32.30;40.58;96084.47;5107046;28;19975;-79
2023/06/20 12:02:14;;;;;;;;;;;;;;;32.47;40.66;96085.09;5107006;28;19961;-73
2023/06/20 12:04:43;;;;;;;;;;;;;;;32.51;39.68;96075.81;5106481;28;20029;-71
2023/06/20 12:07:08;;;;;;;;;;;;;;;32.31;39.51;96087.97;5106936;28;20259;-71
2023/06/20 12:09:41;;;;;;;;;;;;;;;32.28;38.11;96080.59;5105456;28;19961;-71
2023/06/20 12:12:07;;;;;;;;;;;;;;;32.33;39.98;96080.25;5106760;28;19960;-71
2023/06/20 12:14:37;;;;;;;;;;;;;;;32.27;37.28;96077.06;5106389;28;20259;-71
2023/06/20 12:17:03;;;;;;;;;;;;;;;32.28;38.15;96075.16;5106986;28;19960;-71
2023/06/20 12:19:30;;;;;;;;;;;;;;;32.38;38.27;96073.69;5106448;28;19959;-71
2023/06/20 12:21:56;;;;;;;;;;;;;;;32.33;34.75;96064.75;5105079;28;20126;-76
2023/06/20 12:24:27;;;;;;;;;;;;;;;32.28;36.67;96056.16;5105524;28;19958;-82
2023/06/20 12:26:53;;;;;;;;;;;;;;;32.20;35.89;96066.13;5105250;28;19969;-81
2023/06/20 12:29:20;;;;;;;;;;;;;;;32.24;36.69;96056.09;5104957;28;19967;-81
2023/06/20 12:31:46;;;;;;;;;;;;;;;32.39;36.18;96059.00;5106537;28;20259;-81
2023/06/20 12:34:12;;;;;;;;;;;;;;;32.54;36.23;96061.53;5106452;28;19984;-82
2023/06/20 12:36:38;;;;;;;;;;;;;;;32.73;36.37;96055.13;5106333;28;19953;-78
2023/06/20 12:39:04;;;;;;;;;;;;;;;32.88;35.88;96050.63;5106397;28;20014;-72
2023/06/20 12:41:33;;;;;;;;;;;;;;;32.99;34.90;96050.75;5106409;28;20261;-71
2023/06/20 12:43:59;;;;;;;;;;;;;;;33.13;36.46;96044.69;5087418;28;19962;-76